createdAt,value
2022-09-27T00:04:21.602Z,0
2022-09-27T00:09:44.463Z,0
2022-09-27T00:15:06.969Z,0
2022-09-27T00:20:29.483Z,0
2022-09-27T00:25:51.999Z,0
2022-09-27T00:31:15.089Z,0
2022-09-27T00:36:37.710Z,0
2022-09-27T00:42:00.505Z,0
2022-09-27T00:47:24.049Z,2
2022-09-27T00:52:48.316Z,0
2022-09-27T00:58:11.315Z,0
2022-09-27T01:03:33.798Z,0
2022-09-27T01:08:56.197Z,0
2022-09-27T01:25:06.734Z,0
2022-09-27T01:30:29.093Z,0
2022-09-27T01:36:03.497Z,0
2022-09-27T01:41:29.998Z,0
2022-09-27T01:46:52.844Z,0
2022-09-27T01:52:24.877Z,0
2022-09-27T01:57:47.561Z,0
2022-09-27T02:03:09.764Z,0
2022-09-27T02:08:35.080Z,3
2022-09-27T02:14:07.186Z,0
2022-09-27T02:19:29.504Z,0
2022-09-27T02:24:51.704Z,0
2022-09-27T02:30:14.315Z,0
2022-09-27T02:35:44.527Z,0
2022-09-27T02:41:06.957Z,0
2022-09-27T02:46:38.749Z,0
2022-09-27T02:52:01.169Z,0
2022-09-27T02:57:23.823Z,0
2022-09-27T03:02:48.064Z,0
2022-09-27T03:08:31.371Z,3
2022-09-27T03:19:34.692Z,0
2022-09-27T03:24:57.306Z,0
2022-09-27T03:30:19.711Z,0
2022-09-27T03:35:42.078Z,0
2022-09-27T03:41:07.118Z,0
2022-09-27T03:46:31.634Z,0
2022-09-27T03:51:54.237Z,0
2022-09-27T03:57:16.861Z,3
2022-09-27T04:02:39.849Z,0
2022-09-27T04:08:02.654Z,0
2022-09-27T04:13:25.529Z,0
2022-09-27T04:19:08.646Z,0
2022-09-27T04:24:31.528Z,0
2022-09-27T04:29:53.903Z,0
2022-09-27T04:35:16.372Z,0
2022-09-27T04:40:39.457Z,0
2022-09-27T04:46:05.059Z,0
2022-09-27T04:51:27.661Z,0
2022-09-27T04:56:50.290Z,0
2022-09-27T05:07:35.373Z,0
2022-09-27T05:13:01.128Z,0
2022-09-27T05:18:23.946Z,1
2022-09-27T05:23:51.223Z,10
2022-09-27T05:29:14.692Z,20
2022-09-27T05:34:36.962Z,33.2
2022-09-27T05:40:12.181Z,106.3
2022-09-27T05:45:46.240Z,190.5
2022-09-27T05:51:08.826Z,141.9
2022-09-27T05:56:31.577Z,135.3
2022-09-27T06:01:54.494Z,121.6
2022-09-27T06:07:16.984Z,113.3
2022-09-27T06:12:39.332Z,101.4
2022-09-27T06:18:01.949Z,97.3
2022-09-27T06:23:27.378Z,89.8
2022-09-27T06:34:18.186Z,224.1
2022-09-27T06:39:40.566Z,330.4
2022-09-27T06:45:06.567Z,584.3
2022-09-27T07:01:14.793Z,634.4
2022-09-27T07:06:37.449Z,512
2022-09-27T07:11:59.652Z,388.8
2022-09-27T07:22:48.927Z,445.2
2022-09-27T07:28:32.485Z,808
2022-09-27T07:33:55.523Z,888.7
2022-09-27T07:39:22.286Z,787.2
2022-09-27T07:44:44.947Z,754.1
2022-09-27T07:50:13.590Z,854.4
2022-09-27T07:55:38.530Z,1081.3
2022-09-27T08:01:01.585Z,1017.3
2022-09-27T08:06:23.491Z,676.4
2022-09-27T08:11:45.672Z,819.5
2022-09-27T08:22:34.956Z,870.1
2022-09-27T08:27:57.745Z,853
2022-09-27T08:39:02.397Z,850.5
2022-09-27T08:49:48.402Z,857
2022-09-27T08:55:21.235Z,1140.2
2022-09-27T09:00:44.414Z,1025
2022-09-27T09:06:10.786Z,1490.7
2022-09-27T09:11:49.430Z,1661.9
2022-09-27T09:17:10.603Z,1988.2
2022-09-27T09:22:33.823Z,1347.2
2022-09-27T09:28:02.977Z,1128.3
2022-09-27T09:33:24.904Z,1671.4
2022-09-27T09:38:48.807Z,1138.5
2022-09-27T09:44:10.516Z,1072.8
2022-09-27T09:49:35.041Z,811.2
2022-09-27T09:54:57.564Z,520.6
2022-09-27T10:00:20.278Z,1178.2
2022-09-27T10:05:42.993Z,914
2022-09-27T10:11:04.957Z,456.6
2022-09-27T10:16:27.308Z,679.8
2022-09-27T10:21:50.144Z,989.4
2022-09-27T10:32:52.322Z,644.6
2022-09-27T10:43:37.181Z,867.5
2022-09-27T10:49:00.563Z,1218.6
2022-09-27T10:54:24.196Z,1623.9
2022-09-27T10:59:46.321Z,975.6
2022-09-27T11:05:16.029Z,636.3
2022-09-27T11:10:38.819Z,161.8
2022-09-27T11:16:01.055Z,159.9
2022-09-27T11:21:23.338Z,181.1
2022-09-27T11:26:49.031Z,407.2
2022-09-27T11:32:50.075Z,1229.3
2022-09-27T11:38:53.600Z,1116.2
2022-09-27T11:44:23.945Z,867.9
2022-09-27T11:49:48.374Z,775.8
2022-09-27T11:55:11.821Z,1019.7
2022-09-27T12:00:34.350Z,994.8
2022-09-27T12:06:07.605Z,1013.8
2022-09-27T12:11:30.583Z,1856.3
2022-09-27T12:16:53.897Z,1461.1
2022-09-27T12:27:40.809Z,1460.6
2022-09-27T12:33:02.560Z,524.5
2022-09-27T12:54:35.990Z,1449.3
2022-09-27T12:59:58.358Z,1120.8
2022-09-27T13:05:23.379Z,1239.7
2022-09-27T13:10:46.598Z,1074.6
2022-09-27T13:16:08.975Z,1117.6
2022-09-27T13:21:31.732Z,1134.6
2022-09-27T13:27:15.908Z,1941.5
2022-09-27T13:32:40.407Z,3751
2022-09-27T13:38:06.397Z,1791.2
2022-09-27T13:43:27.963Z,955.8
2022-09-27T13:48:51.527Z,603.8
2022-09-27T13:54:13.840Z,579.1
2022-09-27T13:59:56.898Z,485.7
2022-09-27T14:05:19.419Z,326
2022-09-27T14:10:44.423Z,137.2
2022-09-27T14:16:09.088Z,191.3
2022-09-27T14:21:31.672Z,207
2022-09-27T14:26:53.953Z,260.3
2022-09-27T14:32:16.910Z,551.6
2022-09-27T14:43:08.640Z,756.7
2022-09-27T14:48:31.706Z,608.8
2022-09-27T14:53:53.849Z,613.3
2022-09-27T14:59:19.620Z,1163.4
2022-09-27T15:10:09.155Z,561.1
2022-09-27T15:15:31.223Z,408.1
2022-09-27T15:20:53.729Z,305.4
2022-09-27T15:26:15.886Z,290.1
2022-09-27T15:31:38.535Z,310.7
2022-09-27T15:37:01.197Z,331.3
2022-09-27T15:42:23.843Z,382.2
2022-09-27T15:47:51.059Z,222.3
2022-09-27T15:53:13.477Z,168.1
2022-09-27T15:58:35.799Z,295.8
2022-09-27T16:03:58.417Z,305.7
2022-09-27T16:09:21.180Z,275
2022-09-27T16:14:43.686Z,198
2022-09-27T16:20:05.847Z,151.3
2022-09-27T16:25:28.056Z,142.4
2022-09-27T16:41:37.663Z,92.8
2022-09-27T16:47:00.773Z,71
2022-09-27T16:52:23.112Z,57.3
2022-09-27T16:57:45.566Z,32.8
2022-09-27T17:03:08.008Z,30.2
2022-09-27T17:08:30.315Z,20
2022-09-27T17:13:52.615Z,12
2022-09-27T17:19:19.760Z,7
2022-09-27T17:24:42.907Z,2
2022-09-27T17:30:05.660Z,0
2022-09-27T17:35:28.061Z,0
2022-09-27T17:40:50.831Z,0
2022-09-27T17:46:26.578Z,0
2022-09-27T17:51:49.224Z,0
2022-09-27T17:57:11.810Z,0
2022-09-27T18:02:34.438Z,0
2022-09-27T18:08:08.812Z,0
2022-09-27T18:13:31.760Z,0
2022-09-27T18:18:54.279Z,0
2022-09-27T18:24:17.544Z,0
2022-09-27T18:35:05.952Z,0
2022-09-27T18:41:14.595Z,0
2022-09-27T18:46:38.870Z,0
2022-09-27T18:52:01.549Z,0
2022-09-27T18:57:23.938Z,0
2022-09-27T19:02:48.984Z,0
2022-09-27T19:08:11.694Z,0
2022-09-27T19:13:51.865Z,0
2022-09-27T19:19:14.769Z,0
2022-09-27T19:24:37.373Z,0
2022-09-27T19:30:03.080Z,0
2022-09-27T19:35:28.572Z,0
2022-09-27T19:40:51.359Z,0
2022-09-27T19:46:13.944Z,0
2022-09-27T19:51:36.213Z,0
2022-09-27T20:02:24.696Z,0
2022-09-27T20:07:49.168Z,0
2022-09-27T20:13:17.046Z,0
2022-09-27T20:18:39.984Z,0
2022-09-27T20:29:25.519Z,0
2022-09-27T20:34:49.319Z,0
2022-09-27T20:40:12.053Z,0
2022-09-27T20:45:34.470Z,0
2022-09-27T20:51:04.371Z,0
2022-09-27T20:56:27.269Z,0
2022-09-27T21:01:56.113Z,0
2022-09-27T21:07:18.591Z,0
2022-09-27T21:12:41.040Z,0
2022-09-27T21:18:04.499Z,0
2022-09-27T21:23:27.132Z,0
2022-09-27T21:28:59.784Z,0
2022-09-27T21:34:22.338Z,0
2022-09-27T21:39:45.067Z,0
2022-09-27T21:45:13.602Z,0
2022-09-27T21:50:36.199Z,0
2022-09-27T21:56:01.152Z,0
2022-09-27T22:01:23.927Z,0
2022-09-27T22:12:08.716Z,0
2022-09-27T22:17:31.554Z,0
2022-09-27T22:22:53.829Z,0
2022-09-27T22:28:16.277Z,0
2022-09-27T22:33:38.626Z,0
2022-09-27T22:39:16.177Z,0
2022-09-27T22:44:38.978Z,1
2022-09-27T22:50:01.679Z,0
2022-09-27T22:55:23.990Z,0
2022-09-27T23:00:49.255Z,0
2022-09-27T23:06:11.942Z,1
2022-09-27T23:11:34.258Z,0
2022-09-27T23:16:56.608Z,0
2022-09-27T23:22:22.993Z,0
2022-09-27T23:27:47.709Z,0
2022-09-27T23:33:17.601Z,0
2022-09-27T23:38:40.729Z,0
2022-09-27T23:44:03.451Z,0
2022-09-27T23:49:25.860Z,0
